sensor_id;sensor_type;location;lat;lon;timestamp;temperature;humidity
18898;DHT22;9581;49.484;8.556;2023-02-15T00:01:26;3.80;99.90
18898;DHT22;9581;49.484;8.556;2023-02-15T00:03:53;3.90;99.90
18898;DHT22;9581;49.484;8.556;2023-02-15T00:06:21;3.80;99.90
18898;DHT22;9581;49.484;8.556;2023-02-15T00:08:47;3.80;99.90
18898;DHT22;9581;49.484;8.556;2023-02-15T00:11:16;3.80;99.90
18898;DHT22;9581;49.484;8.556;2023-02-15T00:14:03;3.70;99.90
18898;DHT22;9581;49.484;8.556;2023-02-15T00:16:30;3.30;99.90
18898;DHT22;9581;49.484;8.556;2023-02-15T00:18:57;3.50;99.90
18898;DHT22;9581;49.484;8.556;2023-02-15T00:21:29;3.30;99.90
18898;DHT22;9581;49.484;8.556;2023-02-15T00:23:56;3.20;99.90
18898;DHT22;9581;49.484;8.556;2023-02-15T00:26:23;3.20;99.90
18898;DHT22;9581;49.484;8.556;2023-02-15T00:28:50;3.30;99.90
18898;DHT22;9581;49.484;8.556;2023-02-15T00:31:17;3.60;99.90
18898;DHT22;9581;49.484;8.556;2023-02-15T00:33:44;3.40;99.90
18898;DHT22;9581;49.484;8.556;2023-02-15T00:36:11;3.50;99.90
18898;DHT22;9581;49.484;8.556;2023-02-15T00:38:40;3.50;99.90
18898;DHT22;9581;49.484;8.556;2023-02-15T00:41:07;3.50;99.90
18898;DHT22;9581;49.484;8.556;2023-02-15T00:43:35;3.10;99.90
18898;DHT22;9581;49.484;8.556;2023-02-15T00:46:03;2.90;99.90
18898;DHT22;9581;49.484;8.556;2023-02-15T00:48:30;2.90;99.90
18898;DHT22;9581;49.484;8.556;2023-02-15T00:50:58;2.80;99.90
18898;DHT22;9581;49.484;8.556;2023-02-15T00:53:26;2.60;99.90
18898;DHT22;9581;49.484;8.556;2023-02-15T00:55:55;2.60;99.90
18898;DHT22;9581;49.484;8.556;2023-02-15T00:58:21;2.60;99.90
18898;DHT22;9581;49.484;8.556;2023-02-15T01:00:48;2.70;99.90
18898;DHT22;9581;49.484;8.556;2023-02-15T01:03:16;2.60;99.90
18898;DHT22;9581;49.484;8.556;2023-02-15T01:05:44;2.60;99.90
18898;DHT22;9581;49.484;8.556;2023-02-15T01:08:11;2.60;99.90
18898;DHT22;9581;49.484;8.556;2023-02-15T01:10:38;2.70;99.90
18898;DHT22;9581;49.484;8.556;2023-02-15T01:13:06;2.70;99.90
18898;DHT22;9581;49.484;8.556;2023-02-15T01:15:34;2.70;99.90
18898;DHT22;9581;49.484;8.556;2023-02-15T01:18:01;2.70;99.90
18898;DHT22;9581;49.484;8.556;2023-02-15T01:20:29;2.90;99.90
18898;DHT22;9581;49.484;8.556;2023-02-15T01:22:57;2.80;99.90
18898;DHT22;9581;49.484;8.556;2023-02-15T01:25:24;3.10;99.90
18898;DHT22;9581;49.484;8.556;2023-02-15T01:27:51;3.40;99.90
18898;DHT22;9581;49.484;8.556;2023-02-15T01:30:19;3.20;99.90
18898;DHT22;9581;49.484;8.556;2023-02-15T01:32:46;3.20;99.90
18898;DHT22;9581;49.484;8.556;2023-02-15T01:35:13;3.40;99.90
18898;DHT22;9581;49.484;8.556;2023-02-15T01:37:40;3.60;99.90
18898;DHT22;9581;49.484;8.556;2023-02-15T01:40:08;3.20;99.90
18898;DHT22;9581;49.484;8.556;2023-02-15T01:42:38;3.00;99.90
18898;DHT22;9581;49.484;8.556;2023-02-15T01:45:20;3.00;99.90
18898;DHT22;9581;49.484;8.556;2023-02-15T01:47:51;2.80;99.90
18898;DHT22;9581;49.484;8.556;2023-02-15T01:50:25;2.80;99.90
18898;DHT22;9581;49.484;8.556;2023-02-15T01:52:58;2.60;99.90
18898;DHT22;9581;49.484;8.556;2023-02-15T01:55:28;2.70;99.90
18898;DHT22;9581;49.484;8.556;2023-02-15T01:57:56;2.80;99.90
18898;DHT22;9581;49.484;8.556;2023-02-15T02:00:25;3.00;99.90
18898;DHT22;9581;49.484;8.556;2023-02-15T02:03:10;2.70;99.90
18898;DHT22;9581;49.484;8.556;2023-02-15T02:05:38;2.60;99.90
18898;DHT22;9581;49.484;8.556;2023-02-15T02:08:07;2.70;99.90
18898;DHT22;9581;49.484;8.556;2023-02-15T02:10:35;2.60;99.90
18898;DHT22;9581;49.484;8.556;2023-02-15T02:13:04;2.80;99.90
18898;DHT22;9581;49.484;8.556;2023-02-15T02:15:40;3.00;99.90
18898;DHT22;9581;49.484;8.556;2023-02-15T02:18:21;2.80;99.90
18898;DHT22;9581;49.484;8.556;2023-02-15T02:24:21;3.10;99.90
18898;DHT22;9581;49.484;8.556;2023-02-15T02:27:25;3.10;99.90
18898;DHT22;9581;49.484;8.556;2023-02-15T02:30:47;3.50;99.90
18898;DHT22;9581;49.484;8.556;2023-02-15T02:33:42;3.10;99.90
18898;DHT22;9581;49.484;8.556;2023-02-15T02:36:20;3.00;99.90
18898;DHT22;9581;49.484;8.556;2023-02-15T02:38:58;3.30;99.90
18898;DHT22;9581;49.484;8.556;2023-02-15T02:41:31;3.10;99.90
18898;DHT22;9581;49.484;8.556;2023-02-15T02:44:06;2.80;99.90
18898;DHT22;9581;49.484;8.556;2023-02-15T02:46:37;2.70;99.90
18898;DHT22;9581;49.484;8.556;2023-02-15T02:49:06;2.70;99.90
18898;DHT22;9581;49.484;8.556;2023-02-15T02:51:33;3.10;99.90
18898;DHT22;9581;49.484;8.556;2023-02-15T02:54:01;3.20;99.90
18898;DHT22;9581;49.484;8.556;2023-02-15T02:56:35;3.20;99.90
18898;DHT22;9581;49.484;8.556;2023-02-15T02:59:06;3.10;99.90
18898;DHT22;9581;49.484;8.556;2023-02-15T03:01:38;3.10;99.90
18898;DHT22;9581;49.484;8.556;2023-02-15T03:04:10;3.00;99.90
18898;DHT22;9581;49.484;8.556;2023-02-15T03:06:40;3.00;99.90
18898;DHT22;9581;49.484;8.556;2023-02-15T03:09:11;2.90;99.90
18898;DHT22;9581;49.484;8.556;2023-02-15T03:11:47;3.00;99.90
18898;DHT22;9581;49.484;8.556;2023-02-15T03:14:16;2.80;99.90
18898;DHT22;9581;49.484;8.556;2023-02-15T03:16:47;2.60;99.90
18898;DHT22;9581;49.484;8.556;2023-02-15T03:19:17;2.70;99.90
18898;DHT22;9581;49.484;8.556;2023-02-15T03:21:48;2.60;99.90
18898;DHT22;9581;49.484;8.556;2023-02-15T03:24:31;2.60;99.90
18898;DHT22;9581;49.484;8.556;2023-02-15T03:26:59;2.60;99.90
18898;DHT22;9581;49.484;8.556;2023-02-15T03:29:30;2.70;99.90
18898;DHT22;9581;49.484;8.556;2023-02-15T03:31:59;2.60;99.90
18898;DHT22;9581;49.484;8.556;2023-02-15T03:34:29;2.70;99.90
18898;DHT22;9581;49.484;8.556;2023-02-15T03:36:59;2.60;99.90
18898;DHT22;9581;49.484;8.556;2023-02-15T03:39:31;2.50;99.90
18898;DHT22;9581;49.484;8.556;2023-02-15T03:42:06;2.80;99.90
18898;DHT22;9581;49.484;8.556;2023-02-15T03:44:41;3.10;99.90
18898;DHT22;9581;49.484;8.556;2023-02-15T03:47:13;3.00;99.90
18898;DHT22;9581;49.484;8.556;2023-02-15T03:49:45;2.80;99.90
18898;DHT22;9581;49.484;8.556;2023-02-15T03:52:16;2.70;99.90
18898;DHT22;9581;49.484;8.556;2023-02-15T03:54:43;2.60;99.90
18898;DHT22;9581;49.484;8.556;2023-02-15T03:57:15;2.60;99.90
18898;DHT22;9581;49.484;8.556;2023-02-15T04:00:02;2.60;99.90
18898;DHT22;9581;49.484;8.556;2023-02-15T04:03:00;2.50;99.90
18898;DHT22;9581;49.484;8.556;2023-02-15T04:05:32;2.70;99.90
18898;DHT22;9581;49.484;8.556;2023-02-15T04:07:59;2.80;99.90
18898;DHT22;9581;49.484;8.556;2023-02-15T04:10:25;2.70;99.90
18898;DHT22;9581;49.484;8.556;2023-02-15T04:13:10;2.70;99.90
18898;DHT22;9581;49.484;8.556;2023-02-15T04:15:36;2.80;99.90
18898;DHT22;9581;49.484;8.556;2023-02-15T04:18:21;2.60;99.90
18898;DHT22;9581;49.484;8.556;2023-02-15T04:21:03;2.80;99.90
18898;DHT22;9581;49.484;8.556;2023-02-15T04:23:47;2.70;99.90
18898;DHT22;9581;49.484;8.556;2023-02-15T04:26:31;2.50;99.90
18898;DHT22;9581;49.484;8.556;2023-02-15T04:28:58;2.70;99.90
18898;DHT22;9581;49.484;8.556;2023-02-15T04:31:24;2.70;99.90
18898;DHT22;9581;49.484;8.556;2023-02-15T04:33:51;2.70;99.90
18898;DHT22;9581;49.484;8.556;2023-02-15T04:36:19;2.60;99.90
18898;DHT22;9581;49.484;8.556;2023-02-15T04:38:46;2.60;99.90
18898;DHT22;9581;49.484;8.556;2023-02-15T04:41:13;2.60;99.90
18898;DHT22;9581;49.484;8.556;2023-02-15T04:43:40;2.40;99.90
18898;DHT22;9581;49.484;8.556;2023-02-15T04:46:07;2.40;99.90
18898;DHT22;9581;49.484;8.556;2023-02-15T04:48:33;2.50;99.90
18898;DHT22;9581;49.484;8.556;2023-02-15T04:51:05;2.60;99.90
18898;DHT22;9581;49.484;8.556;2023-02-15T04:53:33;2.50;99.90
18898;DHT22;9581;49.484;8.556;2023-02-15T04:56:00;2.70;99.90
18898;DHT22;9581;49.484;8.556;2023-02-15T04:58:27;2.60;99.90
18898;DHT22;9581;49.484;8.556;2023-02-15T05:00:55;2.40;99.90
18898;DHT22;9581;49.484;8.556;2023-02-15T05:03:22;2.40;99.90
18898;DHT22;9581;49.484;8.556;2023-02-15T05:05:49;2.40;99.90
18898;DHT22;9581;49.484;8.556;2023-02-15T05:08:16;2.60;99.90
18898;DHT22;9581;49.484;8.556;2023-02-15T05:10:44;2.60;99.90
18898;DHT22;9581;49.484;8.556;2023-02-15T05:13:11;2.50;99.90
18898;DHT22;9581;49.484;8.556;2023-02-15T05:15:37;2.60;99.90
18898;DHT22;9581;49.484;8.556;2023-02-15T05:18:04;2.60;99.90
18898;DHT22;9581;49.484;8.556;2023-02-15T05:20:31;2.60;99.90
18898;DHT22;9581;49.484;8.556;2023-02-15T05:22:58;2.50;99.90
18898;DHT22;9581;49.484;8.556;2023-02-15T05:25:25;2.50;99.90
18898;DHT22;9581;49.484;8.556;2023-02-15T05:28:27;2.50;99.90
18898;DHT22;9581;49.484;8.556;2023-02-15T05:31:02;2.40;99.90
18898;DHT22;9581;49.484;8.556;2023-02-15T05:33:30;2.60;99.90
18898;DHT22;9581;49.484;8.556;2023-02-15T05:35:57;2.60;99.90
18898;DHT22;9581;49.484;8.556;2023-02-15T05:38:24;2.50;99.90
18898;DHT22;9581;49.484;8.556;2023-02-15T05:40:51;2.70;99.90
18898;DHT22;9581;49.484;8.556;2023-02-15T05:43:18;3.00;99.90
18898;DHT22;9581;49.484;8.556;2023-02-15T05:45:47;3.20;99.90
18898;DHT22;9581;49.484;8.556;2023-02-15T05:48:14;3.50;99.90
18898;DHT22;9581;49.484;8.556;2023-02-15T05:50:41;3.30;99.90
18898;DHT22;9581;49.484;8.556;2023-02-15T05:53:08;3.00;99.90
18898;DHT22;9581;49.484;8.556;2023-02-15T05:55:37;2.70;99.90
18898;DHT22;9581;49.484;8.556;2023-02-15T05:58:04;2.80;99.90
18898;DHT22;9581;49.484;8.556;2023-02-15T06:00:31;2.80;99.90
18898;DHT22;9581;49.484;8.556;2023-02-15T06:03:00;2.70;99.90
18898;DHT22;9581;49.484;8.556;2023-02-15T06:05:26;2.70;99.90
18898;DHT22;9581;49.484;8.556;2023-02-15T06:07:53;2.60;99.90
18898;DHT22;9581;49.484;8.556;2023-02-15T06:10:20;2.60;99.90
18898;DHT22;9581;49.484;8.556;2023-02-15T06:12:47;2.60;99.90
18898;DHT22;9581;49.484;8.556;2023-02-15T06:15:13;2.70;99.90
18898;DHT22;9581;49.484;8.556;2023-02-15T06:17:41;2.60;99.90
18898;DHT22;9581;49.484;8.556;2023-02-15T06:20:10;2.50;99.90
18898;DHT22;9581;49.484;8.556;2023-02-15T06:22:36;2.40;99.90
18898;DHT22;9581;49.484;8.556;2023-02-15T06:25:04;2.40;99.90
18898;DHT22;9581;49.484;8.556;2023-02-15T06:27:31;2.50;99.90
18898;DHT22;9581;49.484;8.556;2023-02-15T06:29:57;2.40;99.90
18898;DHT22;9581;49.484;8.556;2023-02-15T06:32:24;2.50;99.90
18898;DHT22;9581;49.484;8.556;2023-02-15T06:34:51;2.40;99.90
18898;DHT22;9581;49.484;8.556;2023-02-15T06:37:19;2.70;99.90
18898;DHT22;9581;49.484;8.556;2023-02-15T06:39:46;2.70;99.90
18898;DHT22;9581;49.484;8.556;2023-02-15T06:42:12;2.60;99.90
18898;DHT22;9581;49.484;8.556;2023-02-15T06:44:39;2.50;99.90
18898;DHT22;9581;49.484;8.556;2023-02-15T06:47:06;2.50;99.90
18898;DHT22;9581;49.484;8.556;2023-02-15T06:49:33;2.60;99.90
18898;DHT22;9581;49.484;8.556;2023-02-15T06:51:59;2.60;99.90
18898;DHT22;9581;49.484;8.556;2023-02-15T06:54:28;2.60;99.90
18898;DHT22;9581;49.484;8.556;2023-02-15T06:56:54;2.50;99.90
18898;DHT22;9581;49.484;8.556;2023-02-15T06:59:22;2.70;99.90
18898;DHT22;9581;49.484;8.556;2023-02-15T07:01:48;2.70;99.90
18898;DHT22;9581;49.484;8.556;2023-02-15T07:04:15;2.70;99.90
18898;DHT22;9581;49.484;8.556;2023-02-15T07:06:42;2.60;99.90
18898;DHT22;9581;49.484;8.556;2023-02-15T07:09:09;2.60;99.90
18898;DHT22;9581;49.484;8.556;2023-02-15T07:11:37;2.50;99.90
18898;DHT22;9581;49.484;8.556;2023-02-15T07:14:21;2.50;99.90
18898;DHT22;9581;49.484;8.556;2023-02-15T07:16:48;2.80;99.90
18898;DHT22;9581;49.484;8.556;2023-02-15T07:19:15;2.90;99.90
18898;DHT22;9581;49.484;8.556;2023-02-15T07:21:42;2.80;99.90
18898;DHT22;9581;49.484;8.556;2023-02-15T07:24:09;2.80;99.90
18898;DHT22;9581;49.484;8.556;2023-02-15T07:26:37;2.90;99.90
18898;DHT22;9581;49.484;8.556;2023-02-15T07:29:04;2.80;99.90
18898;DHT22;9581;49.484;8.556;2023-02-15T07:31:31;2.90;99.90
18898;DHT22;9581;49.484;8.556;2023-02-15T07:33:57;2.70;99.90
18898;DHT22;9581;49.484;8.556;2023-02-15T07:36:24;2.70;99.90
18898;DHT22;9581;49.484;8.556;2023-02-15T07:38:51;2.80;99.90
18898;DHT22;9581;49.484;8.556;2023-02-15T07:41:18;2.90;99.90
18898;DHT22;9581;49.484;8.556;2023-02-15T07:43:46;2.90;99.90
18898;DHT22;9581;49.484;8.556;2023-02-15T07:46:15;3.20;99.90
18898;DHT22;9581;49.484;8.556;2023-02-15T07:48:43;3.40;99.90
18898;DHT22;9581;49.484;8.556;2023-02-15T07:51:11;3.60;99.90
18898;DHT22;9581;49.484;8.556;2023-02-15T07:53:38;3.40;99.90
18898;DHT22;9581;49.484;8.556;2023-02-15T07:56:07;3.40;99.90
18898;DHT22;9581;49.484;8.556;2023-02-15T07:58:34;3.60;99.90
18898;DHT22;9581;49.484;8.556;2023-02-15T08:01:24;2.90;99.90
18898;DHT22;9581;49.484;8.556;2023-02-15T08:03:52;2.80;99.90
18898;DHT22;9581;49.484;8.556;2023-02-15T08:06:20;2.90;99.90
18898;DHT22;9581;49.484;8.556;2023-02-15T08:08:47;2.90;99.90
18898;DHT22;9581;49.484;8.556;2023-02-15T08:11:17;2.90;99.90
18898;DHT22;9581;49.484;8.556;2023-02-15T08:13:55;2.80;99.90
18898;DHT22;9581;49.484;8.556;2023-02-15T08:16:28;2.70;99.90
18898;DHT22;9581;49.484;8.556;2023-02-15T08:18:56;2.60;99.90
18898;DHT22;9581;49.484;8.556;2023-02-15T08:21:25;2.70;99.90
18898;DHT22;9581;49.484;8.556;2023-02-15T08:23:52;2.60;99.90
18898;DHT22;9581;49.484;8.556;2023-02-15T08:26:19;2.70;99.90
18898;DHT22;9581;49.484;8.556;2023-02-15T08:28:46;3.20;99.90
18898;DHT22;9581;49.484;8.556;2023-02-15T08:31:15;3.00;99.90
18898;DHT22;9581;49.484;8.556;2023-02-15T08:33:44;2.80;99.90
18898;DHT22;9581;49.484;8.556;2023-02-15T08:36:13;2.90;99.90
18898;DHT22;9581;49.484;8.556;2023-02-15T08:38:40;3.00;99.90
18898;DHT22;9581;49.484;8.556;2023-02-15T08:41:12;2.60;99.90
18898;DHT22;9581;49.484;8.556;2023-02-15T08:43:39;2.90;99.90
18898;DHT22;9581;49.484;8.556;2023-02-15T08:46:06;3.00;99.90
18898;DHT22;9581;49.484;8.556;2023-02-15T08:48:34;3.30;99.90
18898;DHT22;9581;49.484;8.556;2023-02-15T08:51:06;3.40;99.90
18898;DHT22;9581;49.484;8.556;2023-02-15T08:53:34;3.50;99.90
18898;DHT22;9581;49.484;8.556;2023-02-15T08:56:00;3.00;99.90
18898;DHT22;9581;49.484;8.556;2023-02-15T08:58:28;3.20;99.90
18898;DHT22;9581;49.484;8.556;2023-02-15T09:00:56;3.30;99.90
18898;DHT22;9581;49.484;8.556;2023-02-15T09:03:23;3.30;99.90
18898;DHT22;9581;49.484;8.556;2023-02-15T09:05:49;3.40;99.90
18898;DHT22;9581;49.484;8.556;2023-02-15T09:08:18;3.40;99.90
18898;DHT22;9581;49.484;8.556;2023-02-15T09:10:45;3.30;99.90
18898;DHT22;9581;49.484;8.556;2023-02-15T09:13:12;3.30;99.90
18898;DHT22;9581;49.484;8.556;2023-02-15T09:15:39;3.20;99.90
18898;DHT22;9581;49.484;8.556;2023-02-15T09:18:06;3.40;99.90
18898;DHT22;9581;49.484;8.556;2023-02-15T09:20:35;3.20;99.90
18898;DHT22;9581;49.484;8.556;2023-02-15T09:23:02;2.80;99.90
18898;DHT22;9581;49.484;8.556;2023-02-15T09:25:30;3.10;99.90
18898;DHT22;9581;49.484;8.556;2023-02-15T09:27:57;3.30;99.90
18898;DHT22;9581;49.484;8.556;2023-02-15T09:30:23;2.70;99.90
18898;DHT22;9581;49.484;8.556;2023-02-15T09:32:50;3.00;99.90
18898;DHT22;9581;49.484;8.556;2023-02-15T09:35:17;3.10;99.90
18898;DHT22;9581;49.484;8.556;2023-02-15T09:37:44;3.20;99.90
18898;DHT22;9581;49.484;8.556;2023-02-15T09:40:12;3.30;99.90
18898;DHT22;9581;49.484;8.556;2023-02-15T09:43:08;3.20;99.90
18898;DHT22;9581;49.484;8.556;2023-02-15T09:45:57;3.20;99.90
18898;DHT22;9581;49.484;8.556;2023-02-15T09:48:41;3.20;99.90
18898;DHT22;9581;49.484;8.556;2023-02-15T09:54:18;2.70;99.90
18898;DHT22;9581;49.484;8.556;2023-02-15T09:56:51;3.20;99.90
18898;DHT22;9581;49.484;8.556;2023-02-15T09:59:27;2.90;99.90
18898;DHT22;9581;49.484;8.556;2023-02-15T10:02:06;3.00;99.90
18898;DHT22;9581;49.484;8.556;2023-02-15T10:04:47;2.70;99.90
18898;DHT22;9581;49.484;8.556;2023-02-15T10:07:29;2.80;99.90
18898;DHT22;9581;49.484;8.556;2023-02-15T10:10:13;2.80;99.90
18898;DHT22;9581;49.484;8.556;2023-02-15T10:13:10;2.90;99.90
18898;DHT22;9581;49.484;8.556;2023-02-15T10:15:52;2.80;99.90
18898;DHT22;9581;49.484;8.556;2023-02-15T10:18:33;2.40;99.90
18898;DHT22;9581;49.484;8.556;2023-02-15T10:21:11;2.20;99.90
18898;DHT22;9581;49.484;8.556;2023-02-15T10:23:59;2.60;99.90
18898;DHT22;9581;49.484;8.556;2023-02-15T10:26:33;2.70;99.90
18898;DHT22;9581;49.484;8.556;2023-02-15T10:29:06;2.50;99.90
18898;DHT22;9581;49.484;8.556;2023-02-15T10:31:44;2.40;99.90
18898;DHT22;9581;49.484;8.556;2023-02-15T10:34:16;2.40;99.90
18898;DHT22;9581;49.484;8.556;2023-02-15T10:37:13;2.50;99.90
18898;DHT22;9581;49.484;8.556;2023-02-15T10:39:50;2.40;99.90
18898;DHT22;9581;49.484;8.556;2023-02-15T10:42:24;2.40;99.90
18898;DHT22;9581;49.484;8.556;2023-02-15T10:45:14;2.80;99.90
18898;DHT22;9581;49.484;8.556;2023-02-15T10:47:59;3.00;99.90
18898;DHT22;9581;49.484;8.556;2023-02-15T10:50:47;3.00;99.90
18898;DHT22;9581;49.484;8.556;2023-02-15T10:53:47;2.50;99.90
18898;DHT22;9581;49.484;8.556;2023-02-15T10:56:23;2.80;99.90
18898;DHT22;9581;49.484;8.556;2023-02-15T10:59:08;2.30;99.90
18898;DHT22;9581;49.484;8.556;2023-02-15T11:01:40;2.50;99.90
18898;DHT22;9581;49.484;8.556;2023-02-15T11:04:39;2.70;99.90
18898;DHT22;9581;49.484;8.556;2023-02-15T11:07:11;2.70;99.90
18898;DHT22;9581;49.484;8.556;2023-02-15T11:09:43;2.60;99.90
18898;DHT22;9581;49.484;8.556;2023-02-15T11:12:13;2.70;99.90
18898;DHT22;9581;49.484;8.556;2023-02-15T11:14:46;3.20;99.90
18898;DHT22;9581;49.484;8.556;2023-02-15T11:17:17;3.10;99.90
18898;DHT22;9581;49.484;8.556;2023-02-15T11:19:55;3.50;99.90
18898;DHT22;9581;49.484;8.556;2023-02-15T11:22:23;3.10;99.90
18898;DHT22;9581;49.484;8.556;2023-02-15T11:24:51;2.80;99.90
18898;DHT22;9581;49.484;8.556;2023-02-15T11:27:21;3.30;99.90
18898;DHT22;9581;49.484;8.556;2023-02-15T11:29:54;2.70;99.90
18898;DHT22;9581;49.484;8.556;2023-02-15T11:32:26;2.60;99.90
18898;DHT22;9581;49.484;8.556;2023-02-15T11:34:59;3.00;99.90
18898;DHT22;9581;49.484;8.556;2023-02-15T11:37:33;3.40;99.90
18898;DHT22;9581;49.484;8.556;2023-02-15T11:40:02;3.40;99.90
18898;DHT22;9581;49.484;8.556;2023-02-15T11:42:33;2.90;99.90
18898;DHT22;9581;49.484;8.556;2023-02-15T11:45:06;3.40;99.90
18898;DHT22;9581;49.484;8.556;2023-02-15T11:47:40;3.20;99.90
18898;DHT22;9581;49.484;8.556;2023-02-15T11:50:14;3.70;99.90
18898;DHT22;9581;49.484;8.556;2023-02-15T11:52:42;4.00;99.90
18898;DHT22;9581;49.484;8.556;2023-02-15T11:55:21;3.50;99.90
18898;DHT22;9581;49.484;8.556;2023-02-15T11:57:53;3.90;99.90
18898;DHT22;9581;49.484;8.556;2023-02-15T12:00:27;4.20;99.90
18898;DHT22;9581;49.484;8.556;2023-02-15T12:03:03;4.00;99.90
18898;DHT22;9581;49.484;8.556;2023-02-15T12:05:36;4.10;99.90
18898;DHT22;9581;49.484;8.556;2023-02-15T12:08:14;4.30;99.90
18898;DHT22;9581;49.484;8.556;2023-02-15T12:10:49;3.60;99.90
18898;DHT22;9581;49.484;8.556;2023-02-15T12:13:19;4.00;99.90
18898;DHT22;9581;49.484;8.556;2023-02-15T12:15:48;4.20;99.90
18898;DHT22;9581;49.484;8.556;2023-02-15T12:18:20;4.20;99.90
18898;DHT22;9581;49.484;8.556;2023-02-15T12:20:49;4.20;99.90
18898;DHT22;9581;49.484;8.556;2023-02-15T12:23:17;4.30;99.90
18898;DHT22;9581;49.484;8.556;2023-02-15T12:25:51;3.40;99.90
18898;DHT22;9581;49.484;8.556;2023-02-15T12:28:32;3.80;99.90
18898;DHT22;9581;49.484;8.556;2023-02-15T12:31:02;3.70;99.90
18898;DHT22;9581;49.484;8.556;2023-02-15T12:33:32;4.00;99.90
18898;DHT22;9581;49.484;8.556;2023-02-15T12:36:09;4.10;99.90
18898;DHT22;9581;49.484;8.556;2023-02-15T12:38:37;4.10;99.90
18898;DHT22;9581;49.484;8.556;2023-02-15T12:41:05;4.40;99.90
18898;DHT22;9581;49.484;8.556;2023-02-15T12:44:03;4.30;99.90
18898;DHT22;9581;49.484;8.556;2023-02-15T12:46:30;4.20;99.90
18898;DHT22;9581;49.484;8.556;2023-02-15T12:49:14;4.40;99.90
18898;DHT22;9581;49.484;8.556;2023-02-15T12:51:45;4.60;99.90
18898;DHT22;9581;49.484;8.556;2023-02-15T12:54:31;3.90;99.90
18898;DHT22;9581;49.484;8.556;2023-02-15T12:57:14;4.00;99.90
18898;DHT22;9581;49.484;8.556;2023-02-15T12:59:48;4.10;99.90
18898;DHT22;9581;49.484;8.556;2023-02-15T13:02:21;3.80;99.90
18898;DHT22;9581;49.484;8.556;2023-02-15T13:04:49;3.80;99.90
18898;DHT22;9581;49.484;8.556;2023-02-15T13:07:17;3.90;99.90
18898;DHT22;9581;49.484;8.556;2023-02-15T13:09:46;4.30;99.90
18898;DHT22;9581;49.484;8.556;2023-02-15T13:12:18;3.90;99.90
18898;DHT22;9581;49.484;8.556;2023-02-15T13:14:48;4.40;99.90
18898;DHT22;9581;49.484;8.556;2023-02-15T13:17:18;3.80;99.90
18898;DHT22;9581;49.484;8.556;2023-02-15T13:19:50;3.60;99.90
18898;DHT22;9581;49.484;8.556;2023-02-15T13:22:22;3.70;99.90
18898;DHT22;9581;49.484;8.556;2023-02-15T13:24:54;3.70;99.90
18898;DHT22;9581;49.484;8.556;2023-02-15T13:27:26;4.10;99.90
18898;DHT22;9581;49.484;8.556;2023-02-15T13:29:57;4.10;99.90
18898;DHT22;9581;49.484;8.556;2023-02-15T13:32:30;4.50;99.90
18898;DHT22;9581;49.484;8.556;2023-02-15T13:35:00;4.80;99.90
18898;DHT22;9581;49.484;8.556;2023-02-15T13:37:45;4.80;99.90
18898;DHT22;9581;49.484;8.556;2023-02-15T13:40:19;4.70;99.90
18898;DHT22;9581;49.484;8.556;2023-02-15T13:42:53;4.90;99.90
18898;DHT22;9581;49.484;8.556;2023-02-15T13:45:32;5.00;99.90
18898;DHT22;9581;49.484;8.556;2023-02-15T13:48:10;5.00;99.90
18898;DHT22;9581;49.484;8.556;2023-02-15T13:50:52;5.20;99.90
18898;DHT22;9581;49.484;8.556;2023-02-15T13:53:33;4.30;99.90
18898;DHT22;9581;49.484;8.556;2023-02-15T13:56:11;4.30;99.90
18898;DHT22;9581;49.484;8.556;2023-02-15T14:01:57;4.10;99.90
18898;DHT22;9581;49.484;8.556;2023-02-15T14:04:58;4.40;99.90
18898;DHT22;9581;49.484;8.556;2023-02-15T14:07:49;4.90;99.90
18898;DHT22;9581;49.484;8.556;2023-02-15T14:10:34;5.10;99.90
18898;DHT22;9581;49.484;8.556;2023-02-15T14:13:21;5.00;99.90
18898;DHT22;9581;49.484;8.556;2023-02-15T14:15:58;5.00;99.90
18898;DHT22;9581;49.484;8.556;2023-02-15T14:18:32;4.90;99.90
18898;DHT22;9581;49.484;8.556;2023-02-15T14:21:08;4.90;99.90
18898;DHT22;9581;49.484;8.556;2023-02-15T14:23:52;4.70;99.90
18898;DHT22;9581;49.484;8.556;2023-02-15T14:26:26;4.80;99.90
18898;DHT22;9581;49.484;8.556;2023-02-15T14:29:07;4.50;99.90
18898;DHT22;9581;49.484;8.556;2023-02-15T14:31:40;4.80;99.90
18898;DHT22;9581;49.484;8.556;2023-02-15T14:34:18;4.90;99.90
18898;DHT22;9581;49.484;8.556;2023-02-15T14:36:46;4.90;99.90
18898;DHT22;9581;49.484;8.556;2023-02-15T14:39:22;5.00;99.90
18898;DHT22;9581;49.484;8.556;2023-02-15T14:42:13;4.80;99.90
18898;DHT22;9581;49.484;8.556;2023-02-15T14:44:45;4.80;99.90
18898;DHT22;9581;49.484;8.556;2023-02-15T14:47:19;4.80;99.90
18898;DHT22;9581;49.484;8.556;2023-02-15T14:49:48;4.50;99.90
18898;DHT22;9581;49.484;8.556;2023-02-15T14:52:15;4.90;99.90
18898;DHT22;9581;49.484;8.556;2023-02-15T14:54:56;5.20;99.90
18898;DHT22;9581;49.484;8.556;2023-02-15T14:57:32;5.20;99.90
18898;DHT22;9581;49.484;8.556;2023-02-15T15:00:01;5.30;99.90
18898;DHT22;9581;49.484;8.556;2023-02-15T15:02:44;5.20;99.90
18898;DHT22;9581;49.484;8.556;2023-02-15T15:05:18;4.90;99.90
18898;DHT22;9581;49.484;8.556;2023-02-15T15:07:47;5.20;99.90
18898;DHT22;9581;49.484;8.556;2023-02-15T15:10:34;5.30;99.90
18898;DHT22;9581;49.484;8.556;2023-02-15T15:13:41;5.30;99.90
18898;DHT22;9581;49.484;8.556;2023-02-15T15:16:50;5.40;99.90
18898;DHT22;9581;49.484;8.556;2023-02-15T15:22:39;5.60;99.90
18898;DHT22;9581;49.484;8.556;2023-02-15T15:25:12;5.40;99.90
18898;DHT22;9581;49.484;8.556;2023-02-15T15:27:58;5.40;99.90
18898;DHT22;9581;49.484;8.556;2023-02-15T15:31:01;5.30;99.90
18898;DHT22;9581;49.484;8.556;2023-02-15T15:37:18;5.30;99.90
18898;DHT22;9581;49.484;8.556;2023-02-15T15:40:24;5.30;99.90
18898;DHT22;9581;49.484;8.556;2023-02-15T15:43:24;5.30;99.90
18898;DHT22;9581;49.484;8.556;2023-02-15T15:46:08;5.30;99.90
18898;DHT22;9581;49.484;8.556;2023-02-15T15:48:39;5.30;99.90
18898;DHT22;9581;49.484;8.556;2023-02-15T15:51:12;5.20;99.90
18898;DHT22;9581;49.484;8.556;2023-02-15T15:53:43;5.20;99.90
18898;DHT22;9581;49.484;8.556;2023-02-15T15:56:15;5.00;99.90
18898;DHT22;9581;49.484;8.556;2023-02-15T15:58:49;4.90;99.90
18898;DHT22;9581;49.484;8.556;2023-02-15T16:01:24;4.80;99.90
18898;DHT22;9581;49.484;8.556;2023-02-15T16:03:53;4.70;99.90
18898;DHT22;9581;49.484;8.556;2023-02-15T16:06:33;4.80;99.90
18898;DHT22;9581;49.484;8.556;2023-02-15T16:09:11;4.60;99.90
18898;DHT22;9581;49.484;8.556;2023-02-15T16:11:38;4.30;99.90
18898;DHT22;9581;49.484;8.556;2023-02-15T16:14:12;4.40;99.90
18898;DHT22;9581;49.484;8.556;2023-02-15T16:16:41;4.50;99.90
18898;DHT22;9581;49.484;8.556;2023-02-15T16:19:20;4.50;99.90
18898;DHT22;9581;49.484;8.556;2023-02-15T16:21:49;4.40;99.90
18898;DHT22;9581;49.484;8.556;2023-02-15T16:24:25;4.30;99.90
18898;DHT22;9581;49.484;8.556;2023-02-15T16:27:09;4.40;99.90
18898;DHT22;9581;49.484;8.556;2023-02-15T16:29:38;4.40;99.90
18898;DHT22;9581;49.484;8.556;2023-02-15T16:32:17;4.00;99.90
18898;DHT22;9581;49.484;8.556;2023-02-15T16:34:52;4.10;99.90
18898;DHT22;9581;49.484;8.556;2023-02-15T16:37:20;3.80;99.90
18898;DHT22;9581;49.484;8.556;2023-02-15T16:39:49;3.90;99.90
18898;DHT22;9581;49.484;8.556;2023-02-15T16:42:17;3.80;99.90
18898;DHT22;9581;49.484;8.556;2023-02-15T16:44:45;3.70;99.90
18898;DHT22;9581;49.484;8.556;2023-02-15T16:47:18;3.50;99.90
18898;DHT22;9581;49.484;8.556;2023-02-15T16:49:47;3.50;99.90
18898;DHT22;9581;49.484;8.556;2023-02-15T16:52:19;3.70;99.90
18898;DHT22;9581;49.484;8.556;2023-02-15T16:54:53;3.60;99.90